This is the latest recevied weather packets stored in our database for station/object KM4CNW. If no packets are shown the sender has not sent any weather packets the latest 1 day(s).
| Time | Temp. | Humidity | Pressure | Rain* | Wind** | Luminosity | Snow |
|---|---|---|---|---|---|---|---|
| 1778042185 | 18.89° C | 61% | 1008.7 hPa | 0 mm | 2.68 m/s, 319° | 0 W/m² | - |
| 1778041883 | 18.89° C | 60% | 1008.5 hPa | 0 mm | 2.24 m/s, 328° | 0 W/m² | - |
| 1778041582 | 18.89° C | 60% | 1008.6 hPa | 0 mm | 1.34 m/s, 299° | 0 W/m² | - |
| 1778041279 | 18.89° C | 59% | 1008.5 hPa | 0 mm | 2.24 m/s, 320° | 0 W/m² | - |
| 1778040978 | 19.44° C | 59% | 1008.4 hPa | 0 mm | 1.79 m/s, 333° | 0 W/m² | - |
| 1778040674 | 19.44° C | 58% | 1008.6 hPa | 0 mm | 2.24 m/s, 329° | 0 W/m² | - |
| 1778040372 | 19.44° C | 58% | 1008.4 hPa | 0 mm | 0.89 m/s, 298° | 0 W/m² | - |
| 1778040068 | 19.44° C | 57% | 1008.6 hPa | 0 mm | 1.34 m/s, 331° | 0 W/m² | - |
| 1778039765 | 19.44° C | 57% | 1008.6 hPa | 0 mm | 1.34 m/s, 315° | 0 W/m² | - |
| 1778039462 | 19.44° C | 57% | 1008.6 hPa | 0 mm | 2.24 m/s, 349° | 0 W/m² | - |
| 1778039159 | 20° C | 56% | 1008.4 hPa | 0 mm | 1.79 m/s, 322° | 0 W/m² | - |
| 1778038856 | 20° C | 56% | 1008.5 hPa | 0 mm | 1.79 m/s, 316° | 0 W/m² | - |
| 1778038553 | 20° C | 56% | 1008.3 hPa | 0 mm | 0.89 m/s, 285° | 0 W/m² | - |
| 1778038250 | 20° C | 55% | 1008.3 hPa | 0 mm | 2.68 m/s, 342° | 0 W/m² | - |
| 1778037948 | 20° C | 55% | 1008.2 hPa | 0 mm | 1.34 m/s, 329° | 0 W/m² | - |
| 1778037644 | 19.44° C | 54% | 1008.2 hPa | 0 mm | 1.79 m/s, 314° | 0 W/m² | - |
| 1778037342 | 19.44° C | 55% | 1008.3 hPa | 0 mm | 1.34 m/s, 320° | 0 W/m² | - |
| 1778037038 | 18.89° C | 55% | 1008.5 hPa | 0 mm | 1.34 m/s, 314° | 0 W/m² | - |
| 1778036737 | 18.89° C | 55% | 1008.4 hPa | 0 mm | 1.79 m/s, 313° | 0 W/m² | - |
| 1778036434 | 18.33° C | 55% | 1008.4 hPa | 0 mm | 0.89 m/s, 283° | 0 W/m² | - |
| 1778036131 | 18.33° C | 55% | 1008.4 hPa | 0 mm | 0.89 m/s, 278° | 0 W/m² | - |
| 1778035827 | 17.78° C | 56% | 1008.5 hPa | 0 mm | 0.45 m/s, 277° | 0 W/m² | - |
| 1778035524 | 18.33° C | 56% | 1008.4 hPa | 0 mm | 0 m/s | 0 W/m² | - |
| 1778035220 | 18.33° C | 55% | 1008.4 hPa | 0 mm | 0.89 m/s, 277° | 0 W/m² | - |
| 1778034916 | 18.33° C | 55% | 1008.5 hPa | 0 mm | 0 m/s | 0 W/m² | - |
* Rain latest hour (hover to see other rain measurements)
** Current wind speed in m/s (hover to see current wind gust speed)